Startpagina
METAR-TAF:

METAR-TAF

Vliegvelden :

Funafuti, Tuvalu

breedte: 08-31S, lengte: 179-13E, hoogte: 1 m

Actueel weer

Dit bericht is 57 minuten geleden gemaakt, om 21:00 UTC
Wind 6 kt uit het oosten
Temperatuur 31°C
Vochtigheid 75%
Druk 1009 hPa
Zicht 10 km of meer
Verspreide wolken op 1800 ft, Stapelwolken.

METAR: NGFU 212100Z 10006KT 9999 SCT018TCU 31/26 Q1009

Tijdstip: 09:57 (21:57 UTC)

Verwachting

Dit bericht is 4 uur en het 48 minuten geleden gemaakt, om 17:09 UTC
Verwachting geldig van 20 om 18 UTC tot 21 om 18 UTC
Wind 8 kt uit het oostzuidoosten
Zicht 10 km of meer
Verspreide wolken op 1800 ft
Kans 30% :
Tijdelijke
van 21 om 06 UTC tot 21 om 18 UTC
Zicht: 5000 m
Weinig wolken op 1800 ft, Cumulonimbus.
onweer, regen

TAF: NGFU 201709Z 2018/2118 12008KT 9999 SCT018 PROB30 TEMPO 2106/2118 5000 TSRA FEW018CB

Waarnemingen en weersverwachtingen van meer dan 4000 vliegvelden (METAR en TAF).

De beschikbare stations zijn de gele en rode punten op de kaart.

Ga met uw muis naar het station om de naam te zien.

Klik dan om waarnemingen en weersverwachtingen te zien.

kaart wijzigen: klik op de groene knoppen met een zwart kruis om in te zoomen, op de groene knop met een streepje om uit te zoomen of op de groene pijlen voor aangrenzende kaarten.


METAR-TAF: